createdAt,value
2022-08-27T00:00:32.191Z,94103.53
2022-08-27T00:02:59.288Z,94106.31
2022-08-27T00:05:26.054Z,94109.03
2022-08-27T00:07:52.798Z,94101.25
2022-08-27T00:10:25.015Z,94103.97
2022-08-27T00:12:53.072Z,94104.38
2022-08-27T00:15:20.073Z,94103.16
2022-08-27T00:17:47.558Z,94104.72
2022-08-27T00:20:20.207Z,94092.72
2022-08-27T00:22:47.007Z,94101.63
2022-08-27T00:25:14.005Z,94101.59
2022-08-27T00:27:41.013Z,94100.38
2022-08-27T00:30:13.038Z,94095.75
2022-08-27T00:32:40.614Z,94098.06
2022-08-27T00:35:08.514Z,94100.38
2022-08-27T00:37:36.026Z,94101.19
2022-08-27T00:40:04.596Z,94100.09
2022-08-27T00:42:31.394Z,94101.28
2022-08-27T00:44:59.708Z,94102.84
2022-08-27T00:47:29.638Z,94101.72
2022-08-27T00:50:07.644Z,94103.69
2022-08-27T00:52:44.437Z,94102.94
2022-08-27T00:55:21.485Z,94106.03
2022-08-27T00:57:57.977Z,94100.19
2022-08-27T01:00:24.755Z,94106.38
2022-08-27T01:02:51.789Z,94100.19
2022-08-27T01:05:21.706Z,94097.47
2022-08-27T01:07:51.810Z,94099.78
2022-08-27T01:10:22.905Z,94100.56
2022-08-27T01:12:53.668Z,94096.28
2022-08-27T01:15:23.294Z,94094.34
2022-08-27T01:17:51.193Z,94090.47
2022-08-27T01:20:27.184Z,94094.34
2022-08-27T01:23:20.812Z,94094.31
2022-08-27T01:25:47.918Z,94088.88
2022-08-27T01:28:16.458Z,94095.06
2022-08-27T01:30:44.253Z,94095.06
2022-08-27T01:33:16.857Z,94092.75
2022-08-27T01:35:46.363Z,94103.56
2022-08-27T01:38:30.179Z,94093.44
2022-08-27T01:41:01.536Z,94096.91
2022-08-27T01:43:29.416Z,94100.00
2022-08-27T01:45:56.133Z,94099.59
2022-08-27T01:48:23.029Z,94092.63
2022-08-27T01:50:50.647Z,94095.34
2022-08-27T01:53:23.670Z,94091.06
2022-08-27T01:55:52.555Z,94085.66
2022-08-27T01:58:22.574Z,94097.28
2022-08-27T02:00:56.277Z,94096.53
2022-08-27T02:03:23.757Z,94095.75
2022-08-27T02:05:50.492Z,94100.38
2022-08-27T02:08:17.825Z,94105.44
2022-08-27T02:10:46.658Z,94091.06
2022-08-27T02:13:13.450Z,94096.91
2022-08-27T02:15:41.903Z,94084.09
2022-08-27T02:18:11.020Z,94088.69
2022-08-27T02:20:38.160Z,94082.91
2022-08-27T02:23:05.173Z,94082.53
2022-08-27T02:25:32.908Z,94081.72
2022-08-27T02:28:00.431Z,94068.47
2022-08-27T02:30:29.160Z,94077.44
2022-08-27T02:32:55.894Z,94073.19
2022-08-27T02:35:23.873Z,94073.59
2022-08-27T02:37:50.891Z,94066.19
2022-08-27T02:40:19.862Z,94064.66
2022-08-27T02:42:47.439Z,94059.19
2022-08-27T02:45:15.851Z,94058.41
2022-08-27T02:47:42.660Z,94066.16
2022-08-27T02:50:10.174Z,94058.41
2022-08-27T02:52:36.994Z,94059.19
2022-08-27T02:55:05.671Z,94054.53
2022-08-27T02:57:36.690Z,94062.66
2022-08-27T03:00:17.942Z,94058.78
2022-08-27T03:02:45.282Z,94047.53
2022-08-27T03:05:13.414Z,94035.16
2022-08-27T03:07:40.856Z,94042.13
2022-08-27T03:10:09.129Z,94047.19
2022-08-27T03:12:36.544Z,94043.31
2022-08-27T03:15:05.482Z,94048.00
2022-08-27T03:17:50.749Z,94033.69
2022-08-27T03:20:18.911Z,94030.97
2022-08-27T03:22:46.191Z,94037.59
2022-08-27T03:25:13.139Z,94034.50
2022-08-27T03:27:40.097Z,94030.25
2022-08-27T03:30:10.883Z,94025.59
2022-08-27T03:32:38.349Z,94035.63
2022-08-27T03:35:06.066Z,94030.63
2022-08-27T03:37:32.752Z,94022.06
2022-08-27T03:39:59.440Z,94033.31
2022-08-27T03:42:26.364Z,94028.66
2022-08-27T03:44:53.076Z,94025.91
2022-08-27T03:47:19.849Z,94023.56
2022-08-27T03:49:46.555Z,94019.34
2022-08-27T03:52:14.388Z,94029.47
2022-08-27T03:54:41.097Z,94039.19
2022-08-27T03:57:07.991Z,94028.31
2022-08-27T03:59:35.483Z,94037.66
2022-08-27T04:02:02.608Z,94029.88
2022-08-27T04:04:29.986Z,94015.56
2022-08-27T04:06:59.016Z,94027.59
2022-08-27T04:09:26.403Z,94026.41
2022-08-27T04:11:53.381Z,94015.56
2022-08-27T04:14:26.336Z,94019.50
2022-08-27T04:16:56.141Z,94029.22
2022-08-27T04:19:27.537Z,94023.44
2022-08-27T04:22:00.259Z,94025.72
2022-08-27T04:24:27.216Z,94023.41
2022-08-27T04:26:53.911Z,94021.47
2022-08-27T04:29:20.569Z,94028.81
2022-08-27T04:31:47.443Z,94010.16
2022-08-27T04:34:14.132Z,94023.41
2022-08-27T04:36:40.765Z,94029.97
2022-08-27T04:39:07.490Z,94025.31
2022-08-27T04:41:34.375Z,94028.03
2022-08-27T04:44:10.731Z,94025.72
2022-08-27T04:46:39.428Z,94026.13
2022-08-27T04:49:10.323Z,94027.69
2022-08-27T04:51:40.034Z,94029.25
2022-08-27T04:54:07.655Z,94020.78
2022-08-27T04:56:35.548Z,94027.00
2022-08-27T04:59:05.436Z,94024.69
2022-08-27T05:01:32.404Z,94025.47
2022-08-27T05:03:59.139Z,94034.00
2022-08-27T05:06:26.441Z,94040.31
2022-08-27T05:08:54.427Z,94039.53
2022-08-27T05:11:22.628Z,94037.59
2022-08-27T05:13:50.238Z,94031.75
2022-08-27T05:16:22.747Z,94040.66
2022-08-27T05:18:51.793Z,94028.25
2022-08-27T05:21:25.639Z,94030.97
2022-08-27T05:23:54.347Z,94042.16
2022-08-27T05:26:21.867Z,94049.13
2022-08-27T05:28:48.894Z,94042.53
2022-08-27T05:31:17.207Z,94039.41
2022-08-27T05:33:44.603Z,94030.91
2022-08-27T05:36:22.959Z,94029.75
2022-08-27T05:38:50.414Z,94025.50
2022-08-27T05:41:20.514Z,94021.59
2022-08-27T05:43:50.127Z,94035.53
2022-08-27T05:46:20.705Z,94030.88
2022-08-27T05:48:48.699Z,94035.50
2022-08-27T05:51:25.978Z,94038.59
2022-08-27T05:54:08.921Z,94040.19
2022-08-27T05:56:38.253Z,94038.63
2022-08-27T05:59:24.525Z,94042.94
2022-08-27T06:01:54.354Z,94038.28
2022-08-27T06:04:24.163Z,94041.84
2022-08-27T06:06:52.122Z,94043.00
2022-08-27T06:09:22.103Z,94043.38
2022-08-27T06:11:49.580Z,94043.41
2022-08-27T06:14:16.331Z,94052.72
2022-08-27T06:16:43.374Z,94045.00
2022-08-27T06:19:14.358Z,94049.25
2022-08-27T06:21:42.359Z,94044.59
2022-08-27T06:24:12.235Z,94051.22
2022-08-27T06:26:40.256Z,94047.31
2022-08-27T06:29:08.450Z,94057.44
2022-08-27T06:31:35.728Z,94035.69
2022-08-27T06:34:07.490Z,94053.53
2022-08-27T06:36:41.436Z,94048.09
2022-08-27T06:39:09.183Z,94050.41
2022-08-27T06:41:36.102Z,94043.41
2022-08-27T06:44:11.291Z,94051.97
2022-08-27T06:46:39.064Z,94057.44
2022-08-27T06:49:06.023Z,94052.00
2022-08-27T06:51:35.705Z,94065.59
2022-08-27T06:54:06.338Z,94064.03
2022-08-27T06:56:33.957Z,94060.16
2022-08-27T06:59:03.425Z,94064.06
2022-08-27T07:01:34.871Z,94062.50
2022-08-27T07:04:05.640Z,94066.38
2022-08-27T07:06:33.654Z,94068.31
2022-08-27T07:09:00.464Z,94064.03
2022-08-27T07:11:28.686Z,94065.97
2022-08-27T07:13:56.352Z,94068.69
2022-08-27T07:16:25.453Z,94072.97
2022-08-27T07:18:55.419Z,94071.03
2022-08-27T07:21:23.822Z,94078.38
2022-08-27T07:23:52.434Z,94087.34
2022-08-27T07:26:20.787Z,94078.00
2022-08-27T07:28:47.823Z,94078.38
2022-08-27T07:31:20.431Z,94083.06
2022-08-27T07:33:51.307Z,94079.19
2022-08-27T07:36:20.607Z,94090.81
2022-08-27T07:38:52.754Z,94095.84
2022-08-27T07:41:31.105Z,94093.91
2022-08-27T07:44:20.610Z,94096.25
2022-08-27T07:46:49.465Z,94097.06
2022-08-27T07:49:19.996Z,94101.69
2022-08-27T07:51:47.263Z,94105.19
2022-08-27T07:54:14.701Z,94099.38
2022-08-27T07:56:41.953Z,94110.28
2022-08-27T07:59:09.062Z,94102.53
2022-08-27T08:01:36.156Z,94107.59
2022-08-27T08:04:03.174Z,94107.22
2022-08-27T08:06:29.925Z,94109.59
2022-08-27T08:08:56.573Z,94116.63
2022-08-27T08:11:23.259Z,94124.41
2022-08-27T08:13:49.980Z,94119.34
2022-08-27T08:16:17.085Z,94118.97
2022-08-27T08:18:43.789Z,94115.47
2022-08-27T08:21:13.383Z,94112.75
2022-08-27T08:23:41.455Z,94122.84
2022-08-27T08:26:09.893Z,94114.69
2022-08-27T08:28:37.164Z,94127.53
2022-08-27T08:31:05.121Z,94122.84
2022-08-27T08:33:33.138Z,94127.13
2022-08-27T08:36:08.629Z,94124.00
2022-08-27T08:38:36.786Z,94125.94
2022-08-27T08:41:05.403Z,94132.16
2022-08-27T08:43:37.923Z,94136.84
2022-08-27T08:46:22.065Z,94138.00
2022-08-27T08:48:56.941Z,94133.31
2022-08-27T08:51:36.469Z,94134.13
2022-08-27T08:54:16.381Z,94135.28
2022-08-27T08:56:58.526Z,94134.50
2022-08-27T08:59:35.358Z,94128.66
2022-08-27T09:02:02.241Z,94131.41
2022-08-27T09:04:30.019Z,94128.66
2022-08-27T09:07:09.575Z,94129.06
2022-08-27T09:09:46.012Z,94132.56
2022-08-27T09:12:19.286Z,94136.06
2022-08-27T09:14:58.080Z,94134.47
2022-08-27T09:17:25.623Z,94132.88
2022-08-27T09:19:52.604Z,94132.84
2022-08-27T09:22:38.404Z,94146.03
2022-08-27T09:25:17.901Z,94139.81
2022-08-27T09:27:51.255Z,94139.44
2022-08-27T09:30:30.591Z,94135.16
2022-08-27T09:33:04.382Z,94144.50
2022-08-27T09:35:46.101Z,94139.84
2022-08-27T09:38:28.450Z,94137.50
2022-08-27T09:41:00.171Z,94137.94
2022-08-27T09:43:28.543Z,94143.41
2022-08-27T09:45:59.412Z,94145.75
2022-08-27T09:48:35.306Z,94138.38
2022-08-27T09:51:08.585Z,94141.50
2022-08-27T09:53:41.523Z,94140.72
2022-08-27T09:56:09.704Z,94137.59
2022-08-27T09:58:55.435Z,94143.41
2022-08-27T10:01:27.605Z,94144.19
2022-08-27T10:04:25.652Z,94135.22
2022-08-27T10:06:52.570Z,94139.13
2022-08-27T10:09:30.501Z,94143.78
2022-08-27T10:12:10.605Z,94128.94
2022-08-27T10:14:44.311Z,94133.16
2022-08-27T10:17:22.727Z,94138.97
2022-08-27T10:20:04.791Z,94134.28
2022-08-27T10:22:34.492Z,94142.06
2022-08-27T10:25:16.271Z,94141.66
2022-08-27T10:28:20.534Z,94141.28
2022-08-27T10:31:22.098Z,94155.38
2022-08-27T10:34:12.291Z,94155.06
2022-08-27T10:37:07.406Z,94161.34
2022-08-27T10:40:01.360Z,94171.03
2022-08-27T10:42:36.694Z,94157.72
2022-08-27T10:45:31.297Z,94171.97
2022-08-27T10:48:04.152Z,94170.72
2022-08-27T10:50:39.771Z,94169.91
2022-08-27T10:53:21.118Z,94166.34
2022-08-27T10:55:58.699Z,94161.22
2022-08-27T10:58:50.117Z,94168.88
2022-08-27T11:01:54.014Z,94166.16
2022-08-27T11:04:25.679Z,94165.69
2022-08-27T11:06:58.021Z,94162.22
2022-08-27T11:09:37.068Z,94169.59
2022-08-27T11:12:14.400Z,94166.56
2022-08-27T11:14:52.429Z,94165.38
2022-08-27T11:17:32.348Z,94166.56
2022-08-27T11:20:11.514Z,94161.13
2022-08-27T11:22:49.197Z,94156.09
2022-08-27T11:25:21.814Z,94153.34
2022-08-27T11:27:55.364Z,94159.47
2022-08-27T11:30:37.470Z,94157.13
2022-08-27T11:33:30.345Z,94168.81
2022-08-27T11:36:09.174Z,94161.00
2022-08-27T11:38:53.708Z,94162.56
2022-08-27T11:41:45.386Z,94166.19
2022-08-27T11:44:15.037Z,94161.56
2022-08-27T11:46:48.995Z,94164.28
2022-08-27T11:49:28.225Z,94162.81
2022-08-27T11:52:02.384Z,94162.84
2022-08-27T11:54:47.778Z,94156.63
2022-08-27T11:57:38.995Z,94161.69
2022-08-27T12:00:33.765Z,94158.22
2022-08-27T12:03:09.636Z,94164.09
2022-08-27T12:05:49.653Z,94157.91
2022-08-27T12:08:22.505Z,94161.44
2022-08-27T12:11:05.058Z,94161.00
2022-08-27T12:13:50.793Z,94161.03
2022-08-27T12:16:34.972Z,94154.84
2022-08-27T12:19:27.067Z,94149.03
2022-08-27T12:22:20.583Z,94150.94
2022-08-27T12:24:53.031Z,94147.44
2022-08-27T12:27:24.270Z,94152.09
2022-08-27T12:30:22.664Z,94140.91
2022-08-27T12:32:52.596Z,94130.06
2022-08-27T12:35:42.014Z,94128.13
2022-08-27T12:38:21.931Z,94120.00
2022-08-27T12:40:57.618Z,94125.41
2022-08-27T12:43:29.170Z,94123.47
2022-08-27T12:46:03.674Z,94120.34
2022-08-27T12:48:39.686Z,94119.59
2022-08-27T12:51:37.927Z,94123.88
2022-08-27T12:54:33.161Z,94124.66
2022-08-27T12:57:34.035Z,94126.25
2022-08-27T13:00:15.337Z,94119.66
2022-08-27T13:02:55.256Z,94126.66
2022-08-27T13:05:23.577Z,94131.34
2022-08-27T13:07:52.627Z,94134.06
2022-08-27T13:10:31.495Z,94132.91
2022-08-27T13:13:19.247Z,94125.19
2022-08-27T13:15:49.006Z,94132.19
2022-08-27T13:18:16.263Z,94127.13
2022-08-27T13:20:43.370Z,94124.03
2022-08-27T13:23:27.309Z,94128.69
2022-08-27T13:26:05.336Z,94128.69
2022-08-27T13:28:34.199Z,94116.63
2022-08-27T13:31:02.857Z,94120.16
2022-08-27T13:33:34.441Z,94125.19
2022-08-27T13:36:03.769Z,94117.41
2022-08-27T13:38:49.759Z,94112.72
2022-08-27T13:41:37.749Z,94114.28
2022-08-27T13:44:11.504Z,94108.47
2022-08-27T13:46:48.657Z,94100.69
2022-08-27T13:49:25.173Z,94112.72
2022-08-27T13:52:02.962Z,94101.84
2022-08-27T13:54:31.124Z,94100.69
2022-08-27T13:57:04.383Z,94097.19
2022-08-27T13:59:31.975Z,94085.50
2022-08-27T14:02:10.976Z,94093.25
2022-08-27T14:04:40.055Z,94094.81
2022-08-27T14:07:10.945Z,94099.88
2022-08-27T14:09:45.487Z,94099.50
2022-08-27T14:12:32.968Z,94096.00
2022-08-27T14:15:23.191Z,94093.69
2022-08-27T14:17:50.412Z,94091.72
2022-08-27T14:20:19.149Z,94098.72
2022-08-27T14:22:47.194Z,94096.38
2022-08-27T14:25:14.815Z,94095.22
2022-08-27T14:27:42.014Z,94097.16
2022-08-27T14:30:29.081Z,94093.66
2022-08-27T14:32:58.992Z,94097.94
2022-08-27T14:35:26.455Z,94093.28
2022-08-27T14:37:54.676Z,94102.22
2022-08-27T14:40:22.252Z,94106.50
2022-08-27T14:42:49.004Z,94096.34
2022-08-27T14:45:17.857Z,94097.91
2022-08-27T14:47:45.262Z,94101.78
2022-08-27T14:50:13.253Z,94088.09
2022-08-27T14:52:40.845Z,94100.53
2022-08-27T14:55:14.383Z,94087.00
2022-08-27T14:57:41.396Z,94088.53
2022-08-27T15:00:09.332Z,94102.91
2022-08-27T15:02:42.808Z,94092.03
2022-08-27T15:05:12.479Z,94104.03
2022-08-27T15:07:41.647Z,94094.38
2022-08-27T15:10:14.560Z,94106.44
2022-08-27T15:12:42.015Z,94099.06
2022-08-27T15:15:10.119Z,94112.25
2022-08-27T15:17:37.165Z,94100.97
2022-08-27T15:20:07.730Z,94098.66
2022-08-27T15:22:37.725Z,94093.97
2022-08-27T15:25:08.917Z,94106.03
2022-08-27T15:27:38.627Z,94093.19
2022-08-27T15:30:12.368Z,94104.81
2022-08-27T15:32:49.260Z,94098.97
2022-08-27T15:35:25.875Z,94099.38
2022-08-27T15:37:54.564Z,94097.03
2022-08-27T15:40:25.482Z,94097.81
2022-08-27T15:42:57.427Z,94094.31
2022-08-27T15:45:25.800Z,94095.84
2022-08-27T15:47:55.831Z,94097.03
2022-08-27T15:50:22.536Z,94093.94
2022-08-27T15:52:55.058Z,94097.88
2022-08-27T15:55:25.246Z,94102.16
2022-08-27T15:57:52.149Z,94097.81
2022-08-27T16:00:20.186Z,94100.53
2022-08-27T16:02:47.139Z,94094.69
2022-08-27T16:05:15.409Z,94093.16
2022-08-27T16:07:42.655Z,94095.88
2022-08-27T16:10:10.888Z,94092.41
2022-08-27T16:12:38.119Z,94100.97
2022-08-27T16:15:06.234Z,94090.88
2022-08-27T16:17:33.524Z,94092.50
2022-08-27T16:20:00.380Z,94091.72
2022-08-27T16:22:27.090Z,94090.94
2022-08-27T16:24:53.889Z,94085.13
2022-08-27T16:27:20.587Z,94094.06
2022-08-27T16:29:47.272Z,94085.50
2022-08-27T16:32:18.981Z,94087.84
2022-08-27T16:34:47.552Z,94094.84
2022-08-27T16:37:22.188Z,94096.38
2022-08-27T16:39:48.884Z,94100.66
2022-08-27T16:42:15.650Z,94110.38
2022-08-27T16:44:42.651Z,94106.50
2022-08-27T16:47:09.448Z,94116.22
2022-08-27T16:49:54.914Z,94115.06
2022-08-27T16:52:23.639Z,94116.63
2022-08-27T16:54:51.656Z,94118.94
2022-08-27T16:57:18.512Z,94115.84
2022-08-27T16:59:45.680Z,94113.91
2022-08-27T17:02:30.266Z,94125.16
2022-08-27T17:05:07.352Z,94124.41
2022-08-27T17:07:48.803Z,94123.22
2022-08-27T17:10:19.539Z,94129.84
2022-08-27T17:12:47.814Z,94131.38
2022-08-27T17:15:16.447Z,94128.66
2022-08-27T17:17:44.085Z,94133.34
2022-08-27T17:20:11.075Z,94132.94
2022-08-27T17:22:37.923Z,94131.03
2022-08-27T17:25:05.656Z,94130.63
2022-08-27T17:27:32.371Z,94127.13
2022-08-27T17:29:59.127Z,94124.41
2022-08-27T17:32:26.672Z,94130.25
2022-08-27T17:34:53.502Z,94140.72
2022-08-27T17:37:20.189Z,94132.19
2022-08-27T17:39:46.874Z,94130.63
2022-08-27T17:42:13.691Z,94121.31
2022-08-27T17:44:40.380Z,94134.13
2022-08-27T17:47:08.296Z,94128.69
2022-08-27T17:49:35.713Z,94140.34
2022-08-27T17:52:07.207Z,94134.88
2022-08-27T17:54:37.766Z,94137.22
2022-08-27T17:57:13.782Z,94141.50
2022-08-27T17:59:40.468Z,94133.34
2022-08-27T18:02:07.226Z,94146.94
2022-08-27T18:04:33.930Z,94145.38
2022-08-27T18:07:00.660Z,94134.47
2022-08-27T18:09:27.336Z,94136.03
2022-08-27T18:11:54.052Z,94138.38
2022-08-27T18:14:23.244Z,94143.75
2022-08-27T18:16:49.943Z,94149.94
2022-08-27T18:19:16.737Z,94153.03
2022-08-27T18:21:46.434Z,94162.72
2022-08-27T18:24:14.760Z,94168.53
2022-08-27T18:26:42.211Z,94158.00
2022-08-27T18:29:09.879Z,94170.81
2022-08-27T18:31:36.761Z,94172.75
2022-08-27T18:34:03.727Z,94170.78
2022-08-27T18:36:31.187Z,94157.91
2022-08-27T18:38:58.358Z,94174.22
2022-08-27T18:41:26.291Z,94176.91
2022-08-27T18:43:53.060Z,94181.56
2022-08-27T18:46:19.830Z,94166.44
2022-08-27T18:48:46.721Z,94177.31
2022-08-27T18:51:16.175Z,94182.38
2022-08-27T18:53:44.372Z,94180.81
2022-08-27T18:56:16.585Z,94194.03
2022-08-27T18:58:43.914Z,94201.00
2022-08-27T19:01:13.815Z,94204.88
2022-08-27T19:03:46.527Z,94209.13
2022-08-27T19:06:13.827Z,94210.28
2022-08-27T19:08:42.214Z,94217.31
2022-08-27T19:11:09.423Z,94207.97
2022-08-27T19:13:36.266Z,94217.69
2022-08-27T19:16:06.771Z,94214.59
2022-08-27T19:18:36.571Z,94211.13
2022-08-27T19:21:04.254Z,94225.47
2022-08-27T19:23:30.985Z,94229.34
2022-08-27T19:26:00.362Z,94224.28
2022-08-27T19:28:39.499Z,94225.41
2022-08-27T19:31:08.327Z,94221.88
2022-08-27T19:33:35.400Z,94217.97
2022-08-27T19:36:02.477Z,94224.16
2022-08-27T19:38:31.816Z,94227.66
2022-08-27T19:40:59.704Z,94227.25
2022-08-27T19:43:26.484Z,94227.22
2022-08-27T19:45:54.240Z,94229.91
2022-08-27T19:48:21.382Z,94239.63
2022-08-27T19:50:48.031Z,94231.44
2022-08-27T19:53:17.761Z,94226.78
2022-08-27T19:55:45.388Z,94228.31
2022-08-27T19:58:17.395Z,94224.78
2022-08-27T20:00:44.819Z,94222.81
2022-08-27T20:03:11.655Z,94225.94
2022-08-27T20:05:38.747Z,94225.53
2022-08-27T20:08:05.692Z,94230.94
2022-08-27T20:10:36.521Z,94225.09
2022-08-27T20:13:05.487Z,94218.09
2022-08-27T20:15:33.367Z,94219.63
2022-08-27T20:18:00.246Z,94218.44
2022-08-27T20:20:28.891Z,94219.22
2022-08-27T20:22:55.949Z,94223.09
2022-08-27T20:25:23.415Z,94225.03
2022-08-27T20:27:50.717Z,94221.91
2022-08-27T20:30:20.360Z,94222.25
2022-08-27T20:32:47.275Z,94225.78
2022-08-27T20:35:15.750Z,94221.50
2022-08-27T20:37:42.794Z,94221.09
2022-08-27T20:40:13.182Z,94223.41
2022-08-27T20:42:39.923Z,94215.22
2022-08-27T20:45:11.732Z,94218.34
2022-08-27T20:47:40.097Z,94212.13
2022-08-27T20:50:07.351Z,94214.44
2022-08-27T20:52:35.638Z,94217.16
2022-08-27T20:55:03.149Z,94218.72
2022-08-27T20:57:29.850Z,94221.06
2022-08-27T21:00:15.201Z,94223.38
2022-08-27T21:02:42.168Z,94230.72
2022-08-27T21:05:13.763Z,94227.25
2022-08-27T21:07:40.910Z,94217.53
2022-08-27T21:10:07.770Z,94224.09
2022-08-27T21:12:34.536Z,94224.91
2022-08-27T21:15:03.403Z,94233.84
2022-08-27T21:17:30.103Z,94232.66
2022-08-27T21:19:56.867Z,94235.38
2022-08-27T21:22:24.388Z,94229.91
2022-08-27T21:24:51.522Z,94233.00
2022-08-27T21:27:21.097Z,94229.91
2022-08-27T21:29:48.460Z,94233.41
2022-08-27T21:32:15.130Z,94228.38
2022-08-27T21:34:41.972Z,94231.50
2022-08-27T21:37:10.983Z,94217.56
2022-08-27T21:39:39.051Z,94226.47
2022-08-27T21:42:06.777Z,94223.00
2022-08-27T21:44:34.278Z,94231.50
2022-08-27T21:47:01.860Z,94231.50
2022-08-27T21:49:28.631Z,94231.13
2022-08-27T21:51:55.322Z,94229.16
2022-08-27T21:54:23.469Z,94232.25
2022-08-27T21:56:53.178Z,94236.16
2022-08-27T21:59:20.272Z,94233.03
2022-08-27T22:01:47.005Z,94234.97
2022-08-27T22:04:13.803Z,94244.66
2022-08-27T22:06:40.475Z,94239.22
2022-08-27T22:09:07.195Z,94245.41
2022-08-27T22:11:33.862Z,94243.09
2022-08-27T22:14:00.764Z,94238.03
2022-08-27T22:16:29.166Z,94232.25
2022-08-27T22:18:57.183Z,94238.06
2022-08-27T22:21:24.517Z,94238.44
2022-08-27T22:23:52.418Z,94232.63
2022-08-27T22:26:21.077Z,94233.00
2022-08-27T22:28:48.288Z,94238.41
2022-08-27T22:31:15.145Z,94233.41
2022-08-27T22:33:42.292Z,94233.03
2022-08-27T22:36:09.267Z,94237.25
2022-08-27T22:38:36.195Z,94233.03
2022-08-27T22:41:03.257Z,94230.72
2022-08-27T22:43:30.506Z,94233.03
2022-08-27T22:45:57.528Z,94234.91
2022-08-27T22:48:24.517Z,94226.75
2022-08-27T22:50:51.290Z,94227.91
2022-08-27T22:53:18.041Z,94234.88
2022-08-27T22:55:49.886Z,94231.44
2022-08-27T22:58:17.921Z,94235.28
2022-08-27T23:00:46.455Z,94227.94
2022-08-27T23:03:19.714Z,94236.03
2022-08-27T23:05:46.834Z,94228.28
2022-08-27T23:08:14.874Z,94231.34
2022-08-27T23:10:43.891Z,94230.94
2022-08-27T23:13:12.119Z,94230.94
2022-08-27T23:15:39.762Z,94230.16
2022-08-27T23:18:06.705Z,94232.06
2022-08-27T23:20:34.229Z,94239.03
2022-08-27T23:23:01.319Z,94235.19
2022-08-27T23:25:49.031Z,94235.19
2022-08-27T23:28:16.216Z,94230.53
2022-08-27T23:30:44.617Z,94235.19
2022-08-27T23:33:13.063Z,94230.16
2022-08-27T23:35:43.370Z,94231.31
2022-08-27T23:38:10.867Z,94229.75
2022-08-27T23:40:37.737Z,94228.59
2022-08-27T23:43:04.533Z,94227.44
2022-08-27T23:45:31.259Z,94226.66
2022-08-27T23:47:58.042Z,94233.66
2022-08-27T23:50:33.899Z,94231.72
2022-08-27T23:53:05.944Z,94228.19
2022-08-27T23:55:33.765Z,94236.72
2022-08-27T23:58:01.514Z,94236.75
